createdAt,value
2018-07-06T00:00:23.648Z,18.20
2018-07-06T00:03:03.681Z,18.20
2018-07-06T00:08:19.886Z,18.20
2018-07-06T00:10:59.551Z,18.20
2018-07-06T00:13:39.275Z,18.20
2018-07-06T00:16:18.795Z,18.20
2018-07-06T00:18:58.536Z,18.20
2018-07-06T00:21:38.207Z,18.10
2018-07-06T00:24:18.003Z,18.10
2018-07-06T00:26:57.659Z,18.10
2018-07-06T00:29:37.176Z,18.10
2018-07-06T00:32:16.967Z,18.10
2018-07-06T00:34:56.503Z,18.20
2018-07-06T00:37:36.155Z,18.20
2018-07-06T00:40:15.991Z,18.10
2018-07-06T00:42:55.704Z,18.10
2018-07-06T00:45:35.431Z,18.10
2018-07-06T00:48:15.251Z,18.00
2018-07-06T00:50:54.675Z,18.10
2018-07-06T00:53:34.465Z,18.10
2018-07-06T00:56:14.145Z,18.00
2018-07-06T00:58:53.643Z,18.00
2018-07-06T01:01:33.506Z,17.90
2018-07-06T01:04:13.133Z,17.90
2018-07-06T01:06:53.008Z,17.90
2018-07-06T01:09:34.132Z,17.90
2018-07-06T01:12:19.460Z,17.90
2018-07-06T01:15:01.120Z,17.90
2018-07-06T01:17:41.107Z,17.90
2018-07-06T01:20:20.796Z,17.90
2018-07-06T01:25:34.507Z,17.90
2018-07-06T01:28:14.247Z,17.90
2018-07-06T01:30:54.867Z,17.90
2018-07-06T01:33:34.409Z,17.90
2018-07-06T01:36:14.103Z,17.90
2018-07-06T01:38:53.583Z,17.90
2018-07-06T01:44:06.846Z,17.90
2018-07-06T01:46:47.022Z,17.90
2018-07-06T01:49:26.524Z,17.90
2018-07-06T01:52:06.315Z,17.90
2018-07-06T01:54:45.933Z,17.80
2018-07-06T01:57:26.581Z,17.80
2018-07-06T02:00:06.218Z,17.90
2018-07-06T02:02:45.922Z,17.90
2018-07-06T02:05:25.654Z,17.90
2018-07-06T02:08:05.432Z,17.90
2018-07-06T02:10:44.983Z,17.90
2018-07-06T02:13:24.683Z,17.80
2018-07-06T02:16:04.973Z,17.80
2018-07-06T02:18:44.504Z,17.80
2018-07-06T02:21:24.287Z,17.80
2018-07-06T02:24:04.047Z,17.70
2018-07-06T02:26:43.698Z,17.70
2018-07-06T02:29:23.233Z,17.70
2018-07-06T02:32:02.868Z,17.60
2018-07-06T02:34:42.865Z,17.60
2018-07-06T02:37:22.553Z,17.50
2018-07-06T02:42:35.672Z,17.40
2018-07-06T02:45:15.171Z,17.30
2018-07-06T02:47:54.832Z,17.20
2018-07-06T02:50:34.336Z,17.10
2018-07-06T02:53:13.891Z,17.00
2018-07-06T02:55:54.090Z,16.90
2018-07-06T02:58:34.800Z,16.90
2018-07-06T03:01:15.298Z,16.80
2018-07-06T03:03:55.041Z,16.70
2018-07-06T03:06:34.735Z,16.60
2018-07-06T03:09:14.523Z,16.50
2018-07-06T03:11:54.149Z,16.50
2018-07-06T03:14:34.427Z,16.50
2018-07-06T03:17:14.555Z,16.50
2018-07-06T03:19:54.018Z,16.50
2018-07-06T03:22:34.399Z,16.50
2018-07-06T03:25:14.114Z,16.50
2018-07-06T03:27:53.900Z,16.50
2018-07-06T03:30:33.460Z,16.50
2018-07-06T03:33:13.007Z,16.50
2018-07-06T03:35:53.716Z,16.60
2018-07-06T03:38:33.456Z,16.60
2018-07-06T03:41:13.315Z,16.70
2018-07-06T03:43:53.054Z,16.90
2018-07-06T03:46:32.758Z,17.00
2018-07-06T03:49:12.803Z,17.10
2018-07-06T03:51:52.619Z,17.20
2018-07-06T03:54:32.300Z,17.20
2018-07-06T03:57:11.995Z,17.30
2018-07-06T03:59:51.636Z,17.40
2018-07-06T04:02:31.175Z,17.50
2018-07-06T04:05:11.065Z,17.60
2018-07-06T04:07:51.602Z,17.70
2018-07-06T04:10:31.851Z,17.70
2018-07-06T04:13:11.463Z,17.80
2018-07-06T04:15:51.744Z,18.00
2018-07-06T04:18:31.475Z,18.10
2018-07-06T04:21:11.176Z,18.20
2018-07-06T04:23:50.660Z,18.20
2018-07-06T04:26:30.311Z,18.30
2018-07-06T04:29:09.971Z,18.40
2018-07-06T04:31:49.942Z,18.50
2018-07-06T04:34:29.603Z,18.60
2018-07-06T04:37:09.319Z,18.70
2018-07-06T04:39:48.976Z,18.70
2018-07-06T04:42:29.415Z,18.80
2018-07-06T04:45:09.144Z,18.90
2018-07-06T04:47:48.876Z,19.20
2018-07-06T04:50:28.491Z,19.70
2018-07-06T04:53:08.082Z,20.40
2018-07-06T04:55:48.006Z,21.00
2018-07-06T04:58:27.779Z,21.50
2018-07-06T05:01:07.715Z,21.50
2018-07-06T05:03:47.291Z,21.60
2018-07-06T05:06:26.838Z,22.00
2018-07-06T05:09:06.539Z,22.00
2018-07-06T05:11:46.343Z,22.10
2018-07-06T05:14:25.991Z,22.40
2018-07-06T05:17:06.820Z,22.50
2018-07-06T05:19:46.553Z,22.60
2018-07-06T05:22:26.091Z,22.50
2018-07-06T05:25:05.646Z,22.70
2018-07-06T05:27:47.084Z,22.80
2018-07-06T05:30:26.895Z,23.00
2018-07-06T05:33:06.603Z,23.30
2018-07-06T05:35:46.580Z,23.80
2018-07-06T05:38:26.207Z,24.10
2018-07-06T05:41:05.861Z,24.30
2018-07-06T05:43:45.459Z,24.60
2018-07-06T05:46:25.270Z,24.90
2018-07-06T05:51:38.483Z,26.20
2018-07-06T05:54:18.336Z,26.60
2018-07-06T05:56:58.041Z,27.00
2018-07-06T05:59:37.824Z,27.10
2018-07-06T06:02:17.456Z,27.50
2018-07-06T06:04:57.088Z,28.00
2018-07-06T06:07:25.644Z,27.90
2018-07-06T06:09:53.933Z,27.60
2018-07-06T06:12:22.627Z,27.80
2018-07-06T06:14:51.760Z,28.10
2018-07-06T06:17:20.353Z,28.10
2018-07-06T06:19:48.614Z,28.30
2018-07-06T06:22:16.835Z,27.70
2018-07-06T06:24:45.091Z,27.30
2018-07-06T06:27:13.345Z,26.60
2018-07-06T06:29:41.651Z,26.60
2018-07-06T06:32:10.675Z,26.70
2018-07-06T06:34:38.926Z,26.50
2018-07-06T06:39:35.197Z,25.40
2018-07-06T06:42:03.672Z,24.60
2018-07-06T06:44:31.955Z,23.70
2018-07-06T06:47:01.349Z,23.10
2018-07-06T06:49:30.878Z,23.10
2018-07-06T06:51:59.624Z,23.50
2018-07-06T06:54:27.938Z,24.10
2018-07-06T06:56:56.203Z,24.70
2018-07-06T06:59:24.792Z,25.00
2018-07-06T07:01:53.047Z,24.80
2018-07-06T07:04:21.556Z,24.60
2018-07-06T07:06:49.816Z,24.80
2018-07-06T07:09:18.053Z,25.10
2018-07-06T07:11:46.336Z,25.10
2018-07-06T07:14:14.584Z,25.30
2018-07-06T07:16:43.300Z,25.20
2018-07-06T07:19:11.591Z,25.60
2018-07-06T07:21:39.867Z,25.90
2018-07-06T07:24:08.157Z,26.30
2018-07-06T07:26:36.428Z,26.40
2018-07-06T07:29:04.692Z,26.70
2018-07-06T07:31:34.139Z,26.80
2018-07-06T07:34:02.372Z,27.00
2018-07-06T07:36:30.639Z,27.80
2018-07-06T07:38:58.949Z,27.90
2018-07-06T07:41:27.390Z,28.20
2018-07-06T07:43:55.780Z,28.40
2018-07-06T07:46:24.081Z,28.10
2018-07-06T07:48:52.298Z,28.00
2018-07-06T07:52:15.659Z,28.80
2018-07-06T07:54:47.112Z,29.00
2018-07-06T07:57:15.462Z,29.00
2018-07-06T07:59:47.159Z,29.50
2018-07-06T08:02:15.765Z,29.40
2018-07-06T08:04:45.283Z,29.20
2018-07-06T08:07:13.564Z,29.40
2018-07-06T08:09:41.795Z,29.70
2018-07-06T08:12:10.936Z,30.10
2018-07-06T08:14:39.125Z,29.80
2018-07-06T08:17:07.336Z,29.40
2018-07-06T08:19:35.794Z,29.30
2018-07-06T08:22:04.016Z,29.30
2018-07-06T08:27:00.735Z,29.00
2018-07-06T08:29:29.363Z,29.20
2018-07-06T08:31:57.596Z,29.50
2018-07-06T08:34:37.331Z,29.30
2018-07-06T08:38:09.181Z,29.20
2018-07-06T08:40:37.418Z,28.90
2018-07-06T08:43:06.423Z,29.60
2018-07-06T08:45:35.985Z,30.10
2018-07-06T08:48:04.223Z,30.20
2018-07-06T08:50:32.520Z,30.10
2018-07-06T08:53:00.785Z,30.00
2018-07-06T08:55:29.518Z,30.10
2018-07-06T08:57:59.063Z,30.20
2018-07-06T09:00:27.338Z,30.20
2018-07-06T09:02:55.683Z,30.40
2018-07-06T09:05:24.157Z,30.40
2018-07-06T09:07:52.442Z,30.30
2018-07-06T09:10:21.007Z,30.30
2018-07-06T09:12:49.224Z,30.80
2018-07-06T09:15:17.440Z,30.80
2018-07-06T09:17:45.647Z,30.90
2018-07-06T09:20:13.977Z,31.20
2018-07-06T09:22:42.218Z,31.30
2018-07-06T09:25:10.471Z,31.20
2018-07-06T09:27:39.293Z,31.30
2018-07-06T09:30:07.635Z,30.80
2018-07-06T09:32:35.846Z,31.10
2018-07-06T09:35:04.043Z,31.10
2018-07-06T09:37:32.355Z,31.30
2018-07-06T09:40:00.618Z,31.80
2018-07-06T09:42:28.839Z,31.80
2018-07-06T09:44:57.071Z,31.60
2018-07-06T09:47:25.345Z,31.20
2018-07-06T09:49:53.598Z,30.90
2018-07-06T09:52:21.775Z,30.70
2018-07-06T09:54:50.017Z,31.10
2018-07-06T09:57:18.326Z,31.30
2018-07-06T09:59:46.529Z,31.70
2018-07-06T10:02:15.215Z,31.80
2018-07-06T10:04:43.481Z,32.40
2018-07-06T10:07:12.244Z,31.60
2018-07-06T10:09:40.989Z,30.50
2018-07-06T10:12:09.162Z,29.90
2018-07-06T10:14:37.435Z,29.80
2018-07-06T10:17:05.663Z,30.10
2018-07-06T10:19:34.831Z,30.50
2018-07-06T10:22:03.022Z,30.70
2018-07-06T10:24:31.326Z,31.20
2018-07-06T10:26:59.586Z,32.10
2018-07-06T10:30:40.167Z,32.00
2018-07-06T10:33:09.109Z,31.80
2018-07-06T10:35:37.341Z,31.40
2018-07-06T10:38:05.602Z,31.30
2018-07-06T10:40:34.727Z,31.60
2018-07-06T10:43:02.997Z,31.70
2018-07-06T10:45:31.215Z,31.60
2018-07-06T10:47:59.436Z,31.50
2018-07-06T10:50:27.687Z,31.80
2018-07-06T10:52:55.911Z,31.90
2018-07-06T10:55:24.235Z,30.70
2018-07-06T10:57:52.763Z,29.70
2018-07-06T11:00:21.017Z,29.80
2018-07-06T11:02:49.674Z,30.50
2018-07-06T11:05:17.951Z,30.90
2018-07-06T11:07:46.642Z,31.10
2018-07-06T11:10:14.835Z,31.30
2018-07-06T11:12:43.108Z,31.50
2018-07-06T11:15:11.331Z,32.00
2018-07-06T11:17:39.607Z,31.80
2018-07-06T11:20:08.205Z,31.90
2018-07-06T11:22:36.445Z,32.00
2018-07-06T11:25:04.838Z,32.60
2018-07-06T11:27:33.042Z,32.60
2018-07-06T11:30:01.624Z,32.20
2018-07-06T11:32:29.907Z,31.10
2018-07-06T11:34:58.132Z,30.30
2018-07-06T11:37:26.579Z,30.50
2018-07-06T11:39:54.935Z,30.90
2018-07-06T11:42:23.155Z,30.40
2018-07-06T11:44:51.401Z,29.30
2018-07-06T11:47:19.658Z,28.70
2018-07-06T11:49:47.931Z,28.80
2018-07-06T11:52:16.188Z,29.20
2018-07-06T11:54:44.523Z,29.90
2018-07-06T11:57:12.738Z,30.30
2018-07-06T11:59:41.099Z,29.90
2018-07-06T12:02:09.741Z,30.10
2018-07-06T12:04:38.162Z,30.00
2018-07-06T12:07:06.359Z,30.50
2018-07-06T12:09:34.622Z,30.60
2018-07-06T12:12:02.835Z,30.00
2018-07-06T12:14:31.101Z,29.60
2018-07-06T12:16:59.387Z,29.60
2018-07-06T12:19:27.998Z,29.60
2018-07-06T12:21:56.360Z,29.90
2018-07-06T12:24:24.632Z,29.60
2018-07-06T12:26:53.075Z,29.30
2018-07-06T12:29:21.423Z,28.90
2018-07-06T12:31:49.662Z,29.60
2018-07-06T12:34:19.406Z,30.50
2018-07-06T12:36:48.672Z,30.20
2018-07-06T12:39:16.882Z,29.90
2018-07-06T12:41:45.152Z,29.60
2018-07-06T12:44:13.469Z,29.50
2018-07-06T12:46:41.735Z,29.80
2018-07-06T12:49:10.491Z,29.30
2018-07-06T12:51:39.560Z,28.80
2018-07-06T12:54:07.832Z,29.10
2018-07-06T12:56:36.170Z,29.40
2018-07-06T12:59:04.887Z,29.20
2018-07-06T13:01:33.107Z,29.60
2018-07-06T13:04:01.340Z,29.90
2018-07-06T13:06:30.063Z,30.30
2018-07-06T13:08:58.303Z,30.70
2018-07-06T13:11:26.631Z,30.70
2018-07-06T13:13:55.096Z,30.70
2018-07-06T13:16:23.318Z,30.30
2018-07-06T13:18:51.598Z,30.20
2018-07-06T13:21:22.070Z,30.10
2018-07-06T13:23:50.452Z,30.00
2018-07-06T13:26:18.690Z,29.90
2018-07-06T13:28:46.968Z,30.00
2018-07-06T13:31:15.252Z,30.30
2018-07-06T13:33:43.468Z,30.50
2018-07-06T13:36:11.677Z,30.60
2018-07-06T13:38:39.935Z,30.40
2018-07-06T13:41:08.191Z,30.30
2018-07-06T13:43:36.728Z,30.40
2018-07-06T13:46:04.983Z,30.70
2018-07-06T13:48:33.245Z,30.70
2018-07-06T13:51:01.515Z,30.60
2018-07-06T13:53:29.833Z,30.50
2018-07-06T13:55:58.209Z,30.60
2018-07-06T13:58:26.453Z,30.80
2018-07-06T14:00:54.764Z,30.90
2018-07-06T14:03:23.007Z,31.10
2018-07-06T14:05:51.390Z,31.50
2018-07-06T14:08:19.612Z,31.70
2018-07-06T14:10:47.827Z,31.80
2018-07-06T14:13:16.092Z,31.50
2018-07-06T14:15:44.320Z,31.60
2018-07-06T14:18:12.714Z,31.30
2018-07-06T14:20:40.952Z,31.40
2018-07-06T14:23:09.213Z,31.80
2018-07-06T14:25:37.552Z,32.10
2018-07-06T14:28:05.825Z,32.10
2018-07-06T14:30:34.043Z,32.90
2018-07-06T14:33:02.223Z,33.20
2018-07-06T14:35:30.490Z,33.40
2018-07-06T14:37:58.783Z,33.50
2018-07-06T14:40:27.025Z,32.50
2018-07-06T14:42:55.492Z,30.70
2018-07-06T14:45:23.962Z,29.80
2018-07-06T14:47:52.176Z,30.50
2018-07-06T14:50:20.796Z,31.50
2018-07-06T14:52:49.099Z,32.80
2018-07-06T14:55:17.396Z,33.30
2018-07-06T14:57:45.651Z,32.50
2018-07-06T15:00:13.867Z,31.90
2018-07-06T15:02:42.139Z,31.00
2018-07-06T15:05:10.373Z,30.90
2018-07-06T15:07:38.787Z,30.10
2018-07-06T15:10:07.039Z,29.20
2018-07-06T15:12:35.462Z,28.60
2018-07-06T15:15:03.732Z,29.20
2018-07-06T15:17:31.982Z,29.30
2018-07-06T15:20:00.227Z,29.60
2018-07-06T15:22:29.111Z,29.20
2018-07-06T15:24:57.489Z,28.60
2018-07-06T15:27:25.654Z,28.90
2018-07-06T15:29:53.865Z,29.90
2018-07-06T15:32:22.083Z,31.40
2018-07-06T15:34:50.272Z,32.40
2018-07-06T15:37:18.560Z,33.00
2018-07-06T15:39:46.836Z,33.70
2018-07-06T15:42:17.220Z,33.10
2018-07-06T15:44:45.503Z,31.50
2018-07-06T15:47:14.872Z,31.40
2018-07-06T15:49:43.141Z,31.30
2018-07-06T15:52:11.484Z,30.70
2018-07-06T15:54:39.720Z,29.70
2018-07-06T15:57:07.980Z,28.90
2018-07-06T15:59:37.019Z,28.30
2018-07-06T16:02:05.289Z,28.20
2018-07-06T16:04:33.794Z,29.60
2018-07-06T16:07:02.048Z,31.30
2018-07-06T16:09:30.319Z,32.40
2018-07-06T16:11:58.552Z,32.20
2018-07-06T16:14:26.789Z,31.50
2018-07-06T16:16:55.035Z,30.80
2018-07-06T16:19:23.305Z,30.50
2018-07-06T16:21:51.583Z,30.80
2018-07-06T16:24:19.828Z,30.90
2018-07-06T16:26:48.165Z,31.30
2018-07-06T16:29:16.448Z,31.20
2018-07-06T16:31:44.715Z,30.40
2018-07-06T16:34:12.939Z,30.00
2018-07-06T16:36:41.207Z,30.10
2018-07-06T16:39:09.436Z,30.30
2018-07-06T16:41:38.802Z,30.80
2018-07-06T16:44:07.124Z,30.90
2018-07-06T16:46:35.271Z,29.90
2018-07-06T16:49:03.582Z,28.80
2018-07-06T16:51:31.832Z,28.30
2018-07-06T16:54:00.079Z,28.10
2018-07-06T16:56:28.375Z,27.60
2018-07-06T16:58:56.623Z,27.10
2018-07-06T17:01:24.888Z,26.60
2018-07-06T17:03:53.111Z,26.40
2018-07-06T17:06:21.381Z,26.20
2018-07-06T17:08:49.590Z,25.90
2018-07-06T17:11:17.835Z,26.00
2018-07-06T17:13:46.092Z,25.90
2018-07-06T17:16:14.335Z,25.70
2018-07-06T17:18:42.552Z,25.70
2018-07-06T17:21:10.842Z,25.80
2018-07-06T17:23:39.083Z,26.20
2018-07-06T17:28:35.319Z,26.40
2018-07-06T17:31:03.620Z,26.50
2018-07-06T17:33:31.893Z,26.70
2018-07-06T17:36:00.181Z,26.50
2018-07-06T17:38:29.264Z,26.30
2018-07-06T17:40:57.491Z,26.00
2018-07-06T17:43:26.684Z,25.90
2018-07-06T17:48:29.611Z,25.70
2018-07-06T17:50:58.135Z,25.60
2018-07-06T17:53:26.835Z,25.60
2018-07-06T17:55:55.103Z,25.50
2018-07-06T17:58:24.007Z,25.50
2018-07-06T18:00:52.315Z,25.40
2018-07-06T18:03:20.555Z,25.30
2018-07-06T18:05:48.866Z,25.20
2018-07-06T18:08:17.140Z,25.00
2018-07-06T18:10:45.391Z,24.80
2018-07-06T18:13:13.622Z,24.60
2018-07-06T18:15:42.110Z,24.40
2018-07-06T18:18:10.476Z,24.40
2018-07-06T18:20:38.749Z,24.30
2018-07-06T18:23:07.042Z,24.30
2018-07-06T18:25:35.178Z,24.20
2018-07-06T18:28:03.438Z,24.10
2018-07-06T18:30:31.779Z,24.10
2018-07-06T18:33:00.080Z,24.00
2018-07-06T18:35:28.295Z,23.90
2018-07-06T18:37:56.543Z,23.80
2018-07-06T18:40:24.818Z,23.70
2018-07-06T18:42:53.928Z,23.70
2018-07-06T18:45:22.775Z,23.60
2018-07-06T18:47:51.030Z,23.50
2018-07-06T18:50:19.260Z,23.40
2018-07-06T18:52:47.498Z,23.30
2018-07-06T18:55:15.831Z,23.20
2018-07-06T18:57:45.139Z,23.20
2018-07-06T19:00:13.372Z,23.10
2018-07-06T19:02:43.528Z,23.00
2018-07-06T19:05:11.840Z,22.90
2018-07-06T19:07:40.079Z,22.80
2018-07-06T19:10:10.248Z,22.60
2018-07-06T19:12:38.562Z,22.60
2018-07-06T19:15:06.835Z,22.50
2018-07-06T19:17:35.043Z,22.40
2018-07-06T19:20:03.334Z,22.30
2018-07-06T19:22:31.570Z,22.20
2018-07-06T19:24:59.827Z,22.00
2018-07-06T19:27:28.637Z,21.80
2018-07-06T19:29:56.851Z,21.70
2018-07-06T19:32:25.127Z,21.70
2018-07-06T19:34:53.769Z,21.60
2018-07-06T19:37:21.987Z,21.50
2018-07-06T19:42:18.111Z,21.30
2018-07-06T19:44:47.739Z,21.30
2018-07-06T19:47:16.120Z,21.20
2018-07-06T19:49:44.331Z,21.20
2018-07-06T19:52:12.901Z,21.20
2018-07-06T19:54:41.176Z,21.10
2018-07-06T19:57:09.449Z,21.00
2018-07-06T19:59:37.659Z,20.90
2018-07-06T20:02:05.897Z,20.90
2018-07-06T20:04:34.154Z,20.90
2018-07-06T20:07:02.403Z,20.80
2018-07-06T20:09:30.679Z,20.70
2018-07-06T20:12:00.328Z,20.60
2018-07-06T20:14:28.616Z,20.60
2018-07-06T20:16:56.843Z,20.60
2018-07-06T20:19:25.316Z,20.40
2018-07-06T20:21:53.435Z,20.30
2018-07-06T20:24:21.691Z,20.20
2018-07-06T20:26:49.900Z,20.20
2018-07-06T20:29:18.135Z,20.10
2018-07-06T20:31:46.451Z,20.00
2018-07-06T20:34:14.687Z,20.00
2018-07-06T20:36:43.036Z,20.00
2018-07-06T20:39:11.198Z,20.00
2018-07-06T20:41:40.260Z,20.00
2018-07-06T20:44:08.534Z,20.00
2018-07-06T20:46:36.834Z,19.90
2018-07-06T20:49:05.365Z,19.90
2018-07-06T20:51:33.648Z,19.90
2018-07-06T20:54:01.919Z,19.80
2018-07-06T20:56:30.144Z,19.80
2018-07-06T20:58:58.411Z,19.70
2018-07-06T21:01:26.643Z,19.60
2018-07-06T21:03:54.936Z,19.50
2018-07-06T21:06:23.567Z,19.40
2018-07-06T21:08:52.193Z,19.30
2018-07-06T21:11:20.515Z,19.30
2018-07-06T21:13:49.043Z,19.20
2018-07-06T21:16:17.300Z,19.20
2018-07-06T21:18:45.895Z,19.10
2018-07-06T21:21:14.145Z,19.20
2018-07-06T21:23:42.331Z,19.20
2018-07-06T21:26:10.574Z,19.20
2018-07-06T21:28:38.849Z,19.20
2018-07-06T21:31:07.503Z,19.20
2018-07-06T21:33:35.772Z,19.20
2018-07-06T21:36:04.048Z,19.20
2018-07-06T21:38:32.298Z,19.10
2018-07-06T21:41:00.830Z,19.00
2018-07-06T21:43:29.046Z,19.00
2018-07-06T21:45:57.303Z,18.90
2018-07-06T21:48:25.534Z,18.90
2018-07-06T21:50:53.784Z,18.80
2018-07-06T21:53:22.020Z,18.70
2018-07-06T21:55:50.271Z,18.60
2018-07-06T21:58:18.479Z,18.50
2018-07-06T22:00:46.668Z,18.50
2018-07-06T22:03:15.215Z,18.40
2018-07-06T22:05:43.776Z,18.40
2018-07-06T22:08:12.096Z,18.40
2018-07-06T22:10:40.376Z,18.30
2018-07-06T22:13:09.048Z,18.20
2018-07-06T22:15:42.668Z,18.20
2018-07-06T22:18:13.299Z,18.20
2018-07-06T22:20:42.183Z,18.20
2018-07-06T22:23:10.494Z,18.20
2018-07-06T22:25:38.789Z,18.10
2018-07-06T22:28:07.938Z,18.10
2018-07-06T22:30:36.183Z,18.00
2018-07-06T22:35:32.845Z,17.90
2018-07-06T22:38:01.124Z,17.90
2018-07-06T22:40:29.411Z,17.90
2018-07-06T22:42:57.682Z,17.90
2018-07-06T22:45:25.953Z,17.80
2018-07-06T22:47:54.251Z,17.70
2018-07-06T22:50:22.544Z,17.60
2018-07-06T22:52:50.755Z,17.50
2018-07-06T22:55:19.028Z,17.40
2018-07-06T22:57:47.311Z,17.40
2018-07-06T23:00:15.560Z,17.30
2018-07-06T23:02:43.887Z,17.20
2018-07-06T23:05:18.360Z,17.10
2018-07-06T23:07:46.599Z,17.00
2018-07-06T23:10:14.940Z,16.90
2018-07-06T23:12:43.166Z,16.70
2018-07-06T23:15:11.483Z,16.50
2018-07-06T23:17:39.694Z,16.30
2018-07-06T23:20:07.923Z,16.10
2018-07-06T23:23:09.349Z,15.80
2018-07-06T23:25:38.872Z,15.60
2018-07-06T23:28:07.480Z,15.40
2018-07-06T23:30:35.743Z,15.20
2018-07-06T23:33:04.871Z,15.10
2018-07-06T23:35:33.331Z,15.00
2018-07-06T23:38:01.588Z,14.90
2018-07-06T23:40:29.884Z,14.80
2018-07-06T23:42:58.693Z,14.80
2018-07-06T23:45:26.950Z,14.80
2018-07-06T23:47:55.145Z,14.80
2018-07-06T23:50:23.638Z,14.70
2018-07-06T23:52:51.866Z,14.60
2018-07-06T23:55:20.317Z,14.60
2018-07-06T23:57:48.856Z,14.70
